This is the latest recevied weather packets stored in our database for station/object N9NDF. If no packets are shown the sender has not sent any weather packets the latest 10 day(s).
| Time | Temp. | Humidity | Pressure | Rain* | Wind** | Luminosity | Snow |
|---|---|---|---|---|---|---|---|
| 1777299875 | 15° C | 94% | 984.7 hPa | 7.62 mm | - | 24 W/m² | - |
| 1777299816 | 15° C | 94% | 984.7 hPa | 7.87 mm | - | 23 W/m² | - |
| 1777299755 | 15° C | 94% | 984.7 hPa | 7.87 mm | - | 21 W/m² | - |
| 1777299695 | 15° C | 94% | 984.7 hPa | 8.13 mm | - | 19 W/m² | - |
| 1777299636 | 15° C | 94% | 984.5 hPa | 8.13 mm | - | 20 W/m² | - |
| 1777299575 | 15° C | 94% | 984.3 hPa | 8.38 mm | - | 22 W/m² | - |
| 1777299516 | 15° C | 94% | 984.2 hPa | 8.38 mm | - | 25 W/m² | - |
| 1777299456 | 15° C | 94% | 984.1 hPa | 8.64 mm | - | 26 W/m² | - |
| 1777299396 | 15° C | 94% | 984.1 hPa | 8.64 mm | - | 25 W/m² | - |
| 1777299335 | 15° C | 94% | 984.4 hPa | 8.89 mm | - | 23 W/m² | - |
| 1777299288 | 15° C | 94% | 984.5 hPa | 8.89 mm | - | 22 W/m² | - |
| 1777299204 | 15° C | 94% | 984.5 hPa | 8.64 mm | - | 23 W/m² | - |
| 1777299143 | 15° C | 93% | 984.4 hPa | 8.64 mm | - | 24 W/m² | - |
| 1777299067 | 15° C | 93% | 984.3 hPa | 8.38 mm | - | 24 W/m² | - |
| 1777299007 | 15° C | 93% | 984.3 hPa | 8.38 mm | - | 24 W/m² | - |
| 1777298947 | 15° C | 93% | 984.3 hPa | 8.13 mm | - | 24 W/m² | - |
| 1777298888 | 15° C | 93% | 984.3 hPa | 7.87 mm | - | 23 W/m² | - |
| 1777298827 | 15° C | 93% | 984.2 hPa | 7.87 mm | - | 22 W/m² | - |
| 1777298780 | 15° C | 93% | 984.2 hPa | 7.62 mm | - | 21 W/m² | - |
| 1777298707 | 15° C | 93% | 984.1 hPa | 7.62 mm | - | 20 W/m² | - |
| 1777298687 | 15° C | 93% | 984 hPa | 7.37 mm | - | 19 W/m² | - |
| 1777298586 | 15° C | 93% | 984 hPa | 7.11 mm | - | 18 W/m² | - |
| 1777298528 | 15° C | 93% | 984 hPa | 7.11 mm | - | 17 W/m² | - |
| 1777298480 | 15.56° C | 93% | 984.1 hPa | 6.6 mm | - | 17 W/m² | - |
| 1777298407 | 15.56° C | 92% | 984.4 hPa | 6.6 mm | - | 16 W/m² | - |
* Rain latest hour (hover to see other rain measurements)
** Current wind speed in m/s (hover to see current wind gust speed)